Time;durP1;ratioP1;P1;durP2;ratioP2;P2;SDS_P1;SDS_P2;PMS_P1;PMS_P2;Temp;Humidity;BMP_temperature;BMP_pressure;BME280_temperature;BME280_humidity;BME280_pressure;Samples;Min_cycle;Max_cycle;Signal;HPM_P1;HPM_P2
2023/11/22 00:01:52;;;;;;;27.63;16.52;;;;;;;0.21;79.52;100711.78;30976859;28;115686;-64
2023/11/22 00:16:53;;;;;;;28.95;18.08;;;;;;;0.22;79.79;100713.47;30974728;28;96659;-65
2023/11/22 00:31:53;;;;;;;26.48;17.08;;;;;;;0.21;79.76;100729.28;30974719;28;96633;-64
2023/11/22 00:46:54;;;;;;;27.00;16.15;;;;;;;0.23;79.41;100777.19;30972484;28;103635;-64
2023/11/22 01:01:55;;;;;;;28.25;17.95;;;;;;;0.25;79.33;100764.88;30972141;28;97410;-63
2023/11/22 01:16:55;;;;;;;24.98;15.57;;;;;;;0.06;79.46;100778.19;30970738;28;97162;-63
2023/11/22 01:31:55;;;;;;;23.30;14.95;;;;;;;-0.09;79.34;100788.59;30967707;28;97073;-65
2023/11/22 01:46:56;;;;;;;25.60;14.82;;;;;;;-0.15;79.20;100794.19;30966627;28;97406;-64
2023/11/22 02:01:56;;;;;;;24.02;13.20;;;;;;;-0.21;79.40;100805.00;30965786;28;96969;-64
2023/11/22 02:16:58;;;;;;;22.05;14.63;;;;;;;-0.25;79.35;100843.59;30963710;28;97885;-63
2023/11/22 02:31:58;;;;;;;19.23;12.15;;;;;;;-0.22;79.15;100850.44;30964412;28;97165;-65
2023/11/22 02:46:59;;;;;;;22.95;14.23;;;;;;;-0.13;79.36;100868.28;30961502;28;105191;-64
2023/11/22 03:02:01;;;;;;;22.55;13.00;;;;;;;-0.22;79.13;100885.34;30960808;28;96758;-64
2023/11/22 03:17:03;;;;;;;20.40;13.60;;;;;;;-0.27;78.77;100923.19;30959349;28;97212;-63
2023/11/22 03:32:04;;;;;;;23.05;13.70;;;;;;;-0.39;78.49;100951.69;30958093;28;96733;-65
2023/11/22 03:47:04;;;;;;;24.98;13.07;;;;;;;-0.55;78.67;100976.97;30959088;28;96775;-64
2023/11/22 04:02:05;;;;;;;21.75;11.95;;;;;;;-0.54;78.43;100989.97;30977042;28;96689;-64
2023/11/22 04:17:06;;;;;;;20.35;11.93;;;;;;;-0.60;78.50;101000.78;30974953;28;96687;-64
2023/11/22 04:32:06;;;;;;;16.52;10.05;;;;;;;-0.69;78.15;101015.16;30972796;28;97042;-64
2023/11/22 04:47:06;;;;;;;10.60;6.43;;;;;;;-0.77;77.93;101038.25;30970565;28;103054;-65
2023/11/22 05:02:07;;;;;;;15.98;7.22;;;;;;;-0.80;77.80;101048.88;30969844;28;97184;-64
2023/11/22 05:17:07;;;;;;;11.55;7.40;;;;;;;-0.86;77.87;101086.66;30965439;28;97211;-64
2023/11/22 05:32:07;;;;;;;12.75;7.50;;;;;;;-0.78;77.65;101122.06;30965099;28;97060;-63
2023/11/22 05:47:08;;;;;;;12.88;7.72;;;;;;;-0.73;77.52;101160.16;30964582;28;97523;-63
2023/11/22 06:02:08;;;;;;;15.13;8.02;;;;;;;-0.75;77.29;101180.34;30960874;28;109030;-63
2023/11/22 06:17:10;;;;;;;15.95;9.05;;;;;;;-0.65;76.95;101211.31;30959209;28;97648;-63
2023/11/22 06:32:10;;;;;;;16.88;9.55;;;;;;;-0.51;77.29;101203.63;30960616;28;97927;-62
2023/11/22 06:47:10;;;;;;;14.13;7.13;;;;;;;-0.54;77.42;101227.34;30955933;28;97234;-63
2023/11/22 07:02:11;;;;;;;11.80;7.28;;;;;;;-0.56;76.73;101252.72;30955883;28;96787;-62
2023/11/22 07:17:11;;;;;;;13.80;7.28;;;;;;;-0.48;76.54;101253.22;30958679;28;97009;-62
2023/11/22 07:32:12;;;;;;;10.20;6.32;;;;;;;-0.26;76.87;101265.28;30972005;28;96872;-63
2023/11/22 07:47:12;;;;;;;12.27;6.72;;;;;;;0.06;76.49;101257.63;30975282;28;97442;-62
2023/11/22 08:02:12;;;;;;;14.52;7.22;;;;;;;0.33;75.58;101294.72;30975078;28;97318;-62
2023/11/22 08:17:13;;;;;;;12.15;7.47;;;;;;;0.53;75.41;101333.03;30972690;28;102342;-64
2023/11/22 08:32:14;;;;;;;10.57;6.57;;;;;;;0.80;75.36;101361.41;30970409;28;97378;-63
2023/11/22 08:47:14;;;;;;;13.32;8.05;;;;;;;0.76;74.56;101317.91;30965005;28;110530;-63
2023/11/22 09:02:15;;;;;;;13.63;8.23;;;;;;;1.44;74.23;101307.28;30967368;28;97556;-63
2023/11/22 09:17:16;;;;;;;13.93;9.05;;;;;;;5.00;72.86;101325.84;30963912;28;97526;-64
2023/11/22 09:32:16;;;;;;;13.15;8.65;;;;;;;15.71;62.74;101331.50;30964803;28;96801;-63
2023/11/22 09:47:19;;;;;;;13.93;8.88;;;;;;;14.52;55.75;101304.50;30959513;28;116750;-63
2023/11/22 10:02:21;;;;;;;11.60;8.10;;;;;;;20.21;50.26;101325.31;30962164;28;97206;-62
2023/11/22 10:17:22;;;;;;;9.43;8.27;;;;;;;27.45;39.02;101327.13;30961187;28;97068;-63
2023/11/22 10:32:22;;;;;;;10.07;8.17;;;;;;;31.10;30.89;101327.03;30955964;28;97040;-62
2023/11/22 10:47:24;;;;;;;9.07;6.80;;;;;;;33.29;24.25;101357.00;30955975;28;97526;-63
2023/11/22 11:02:27;;;;;;;9.93;8.10;;;;;;;21.44;27.66;101388.16;30977822;28;97500;-63
2023/11/22 11:17:28;;;;;;;12.50;8.47;;;;;;;15.42;31.27;101359.84;30995595;28;96689;-63
2023/11/22 11:32:39;;;;;;;12.02;8.15;;;;;;;9.62;36.60;101348.13;30992153;28;97308;-63
2023/11/22 11:47:39;;;;;;;9.70;7.67;;;;;;;-147.20;100.00;63046.97;31557613;28;96298;-63
2023/11/22 12:02:40;;;;;;;16.10;10.27;;;;;;;-147.20;100.00;63046.97;31569016;28;20601;-63
2023/11/22 12:17:41;;;;;;;13.50;9.05;;;;;;;-147.20;100.00;63046.97;31552004;28;20033;-63
2023/11/22 12:32:42;;;;;;;13.43;8.80;;;;;;;-147.20;100.00;63046.97;31544345;28;20029;-63
2023/11/22 12:47:45;;;;;;;12.30;8.23;;;;;;;-147.20;100.00;63046.97;31542764;28;20095;-63
2023/11/22 13:02:46;;;;;;;11.17;7.63;;;;;;;-147.20;100.00;63046.97;31543907;28;20419;-63
2023/11/22 13:17:46;;;;;;;10.60;7.32;;;;;;;-147.20;100.00;63046.97;31541186;28;20033;-62
2023/11/22 13:32:47;;;;;;;17.23;7.78;;;;;;;-147.20;100.00;63046.97;31537230;28;24889;-63
2023/11/22 13:47:50;;;;;;;10.32;6.93;;;;;;;-147.20;100.00;63046.97;31537811;28;20049;-63
2023/11/22 14:02:52;;;;;;;12.82;8.70;;;;;;;-147.20;100.00;63046.97;31538011;28;20128;-63
2023/11/22 14:17:53;;;;;;;12.03;7.60;;;;;;;-147.20;100.00;63046.97;31535241;28;20032;-64
2023/11/22 14:32:53;;;;;;;10.52;6.72;;;;;;;-147.20;100.00;63046.97;31534631;28;20033;-63
2023/11/22 14:47:53;;;;;;;17.92;7.72;;;;;;;-147.20;100.00;63046.97;31532031;28;20147;-63
2023/11/22 15:02:55;;;;;;;13.57;8.10;;;;;;;-147.20;100.00;63046.97;31531653;28;25234;-63
2023/11/22 15:17:56;;;;;;;12.07;8.50;;;;;;;-147.20;100.00;63046.97;31531492;28;20112;-62
2023/11/22 15:32:56;;;;;;;13.02;7.53;;;;;;;-147.20;100.00;63046.97;31529669;28;20044;-62
2023/11/22 15:47:56;;;;;;;15.90;9.85;;;;;;;-147.20;100.00;63046.97;31537389;28;20061;-63
2023/11/22 16:02:58;;;;;;;21.38;11.35;;;;;;;-147.20;100.00;63046.97;31547073;28;20083;-63
2023/11/22 16:17:58;;;;;;;19.33;12.27;;;;;;;-147.20;100.00;63046.97;31547803;28;20032;-63
2023/11/22 16:32:58;;;;;;;19.02;11.25;;;;;;;-147.20;100.00;63046.97;31548203;28;20032;-63
2023/11/22 16:47:59;;;;;;;18.20;12.13;;;;;;;-147.20;100.00;63046.97;31546185;28;20501;-63
2023/11/22 17:03:00;;;;;;;26.17;12.07;;;;;;;-147.20;100.00;63046.97;31544088;28;20462;-64
2023/11/22 17:18:01;;;;;;;27.10;13.57;;;;;;;-147.20;100.00;63046.97;31540438;28;20228;-62
2023/11/22 17:33:01;;;;;;;20.02;12.10;;;;;;;-147.20;100.00;63046.97;31539755;28;20048;-62
2023/11/22 17:48:01;;;;;;;25.13;13.07;;;;;;;-147.20;100.00;63046.97;31536357;28;20044;-63
2023/11/22 18:03:03;;;;;;;16.67;11.45;;;;;;;-147.20;100.00;63046.97;31537713;28;20053;-63
2023/11/22 18:18:04;;;;;;;21.15;12.82;;;;;;;-147.20;100.00;63046.97;31535776;28;20044;-63
2023/11/22 18:33:05;;;;;;;21.40;12.88;;;;;;;-147.20;100.00;63046.97;31533303;28;20086;-63
2023/11/22 18:48:06;;;;;;;29.15;16.75;;;;;;;-147.20;100.00;63046.97;31531824;28;20464;-63
2023/11/22 19:03:06;;;;;;;23.60;13.52;;;;;;;-147.20;100.00;63046.97;31531990;28;20094;-62
2023/11/22 19:18:06;;;;;;;26.17;13.65;;;;;;;-147.20;100.00;63046.97;31535099;28;20045;-62
2023/11/22 19:33:07;;;;;;;15.82;10.93;;;;;;;-147.20;100.00;63046.97;31552581;28;20044;-63
2023/11/22 19:48:07;;;;;;;22.45;12.88;;;;;;;-147.20;100.00;63046.97;31552916;28;20049;-63
2023/11/22 20:07:10;;;;;;;27.92;14.73;;;;;;;-1.82;64.16;101212.16;31190751;28;96966;-62
2023/11/22 20:22:10;;;;;;;33.33;16.27;;;;;;;-1.85;64.73;101189.63;30963470;27;105753;-61
2023/11/22 20:37:10;;;;;;;32.08;14.98;;;;;;;-1.93;65.17;101165.59;30830822;28;97522;-61
2023/11/22 20:52:12;;;;;;;25.48;14.63;;;;;;;-1.92;66.02;101173.38;30754888;28;97272;-61
2023/11/22 21:07:12;;;;;;;27.08;15.50;;;;;;;-1.83;66.69;101151.25;30695557;28;96869;-61
2023/11/22 21:22:13;;;;;;;31.20;15.52;;;;;;;-1.71;66.72;101121.97;30656996;28;97388;-61
2023/11/22 21:37:14;;;;;;;26.48;14.18;;;;;;;-1.80;66.82;101085.78;30641589;28;97392;-60
2023/11/22 21:52:14;;;;;;;26.98;14.25;;;;;;;-1.85;67.63;101077.31;30598254;28;97086;-60
2023/11/22 22:07:14;;;;;;;30.15;15.43;;;;;;;-1.66;67.83;101079.09;30589321;28;115584;-60
2023/11/22 22:22:15;;;;;;;30.77;16.45;;;;;;;-1.18;68.33;101072.50;30560126;28;97222;-61
2023/11/22 22:37:15;;;;;;;24.73;13.73;;;;;;;-0.95;67.56;101031.34;30641429;28;109768;-61
2023/11/22 22:52:16;;;;;;;25.05;13.25;;;;;;;-1.02;68.03;101000.22;30592492;28;114229;-61
2023/11/22 23:07:16;;;;;;;29.60;17.00;;;;;;;-1.15;67.87;100949.44;30615158;28;96730;-60
2023/11/22 23:22:17;;;;;;;33.20;15.38;;;;;;;-1.50;68.45;100956.41;30711739;28;96727;-61
2023/11/22 23:37:18;;;;;;;28.88;13.75;;;;;;;-1.58;69.36;100931.50;30709990;28;97271;-62
2023/11/22 23:52:18;;;;;;;27.00;13.60;;;;;;;-1.45;69.46;100904.75;30632141;28;103061;-60
